createdAt,value
2019-03-23T00:01:20.888Z,28.87
2019-03-23T00:04:02.824Z,25.40
2019-03-23T00:06:44.778Z,28.07
2019-03-23T00:09:27.687Z,23.43
2019-03-23T00:12:09.568Z,26.00
2019-03-23T00:14:51.528Z,25.90
2019-03-23T00:17:33.767Z,24.23
2019-03-23T00:20:15.673Z,46.73
2019-03-23T00:22:57.581Z,32.87
2019-03-23T00:25:39.330Z,184.67
2019-03-23T00:28:21.448Z,26.57
2019-03-23T00:31:03.395Z,24.17
2019-03-23T00:33:45.364Z,25.30
2019-03-23T00:36:27.264Z,38.63
2019-03-23T00:39:09.552Z,25.30
2019-03-23T00:41:51.471Z,29.43
2019-03-23T00:44:33.457Z,36.13
2019-03-23T00:47:15.424Z,30.23
2019-03-23T00:49:57.305Z,29.70
2019-03-23T00:52:39.280Z,29.00
2019-03-23T00:55:21.391Z,27.00
2019-03-23T00:58:03.331Z,25.10
2019-03-23T01:00:45.119Z,25.27
2019-03-23T01:03:27.187Z,33.43
2019-03-23T01:06:09.064Z,25.77
2019-03-23T01:08:51.121Z,26.60
2019-03-23T01:11:32.835Z,29.80
2019-03-23T01:14:00.943Z,42.43
2019-03-23T01:16:42.704Z,29.87
2019-03-23T01:19:24.692Z,32.70
2019-03-23T01:22:06.557Z,30.47
2019-03-23T01:24:48.634Z,27.87
2019-03-23T01:27:30.525Z,25.50
2019-03-23T01:30:11.751Z,42.67
2019-03-23T01:32:39.883Z,31.03
2019-03-23T01:35:21.399Z,52.60
2019-03-23T01:38:03.566Z,27.00
2019-03-23T01:40:45.579Z,30.73
2019-03-23T01:43:27.560Z,31.50
2019-03-23T01:46:09.803Z,28.77
2019-03-23T01:48:51.664Z,36.40
2019-03-23T01:51:19.752Z,53.40
2019-03-23T01:54:01.504Z,42.30
2019-03-23T01:56:43.351Z,31.90
2019-03-23T01:59:25.275Z,31.87
2019-03-23T02:02:07.142Z,36.67
2019-03-23T02:04:49.255Z,33.90
2019-03-23T02:07:30.955Z,49.43
2019-03-23T02:10:12.868Z,38.40
2019-03-23T02:12:55.157Z,30.00
2019-03-23T02:15:37.176Z,30.23
2019-03-23T02:18:19.138Z,30.83
2019-03-23T02:21:01.218Z,29.27
2019-03-23T02:23:43.219Z,31.20
2019-03-23T02:26:25.379Z,28.67
2019-03-23T02:29:07.187Z,31.40
2019-03-23T02:31:49.274Z,38.90
2019-03-23T02:34:31.315Z,38.67
2019-03-23T02:37:13.082Z,32.17
2019-03-23T02:39:55.132Z,31.87
2019-03-23T02:42:37.078Z,30.73
2019-03-23T02:45:18.985Z,31.00
2019-03-23T02:48:00.572Z,27.90
2019-03-23T02:50:41.655Z,35.83
2019-03-23T02:53:23.736Z,32.40
2019-03-23T02:56:05.945Z,30.27
2019-03-23T02:58:47.912Z,36.73
2019-03-23T03:01:30.036Z,27.80
2019-03-23T03:04:13.809Z,35.10
2019-03-23T03:06:54.929Z,35.73
2019-03-23T03:09:36.836Z,33.10
2019-03-23T03:12:18.725Z,36.43
2019-03-23T03:15:00.648Z,32.37
2019-03-23T03:17:42.542Z,31.53
2019-03-23T03:20:24.404Z,33.13
2019-03-23T03:23:06.832Z,45.33
2019-03-23T03:25:48.700Z,33.97
2019-03-23T03:28:30.527Z,31.00
2019-03-23T03:31:12.296Z,31.30
2019-03-23T03:33:54.469Z,37.83
2019-03-23T03:36:37.430Z,27.63
2019-03-23T03:39:19.335Z,30.60
2019-03-23T03:42:01.213Z,36.57
2019-03-23T03:44:43.308Z,34.40
2019-03-23T03:47:25.480Z,29.33
2019-03-23T03:50:07.457Z,31.43
2019-03-23T03:52:49.372Z,32.93
2019-03-23T03:55:30.412Z,30.07
2019-03-23T03:58:12.363Z,30.40
2019-03-23T04:00:54.302Z,36.63
2019-03-23T04:03:36.221Z,36.70
2019-03-23T04:06:17.963Z,37.73
2019-03-23T04:09:00.126Z,36.47
2019-03-23T04:11:42.051Z,35.70
2019-03-23T04:14:24.022Z,35.87
2019-03-23T04:17:06.155Z,32.37
2019-03-23T04:19:47.431Z,32.30
2019-03-23T04:22:30.309Z,37.17
2019-03-23T04:25:12.332Z,32.27
2019-03-23T04:27:54.040Z,37.20
2019-03-23T04:30:36.339Z,30.70
2019-03-23T04:33:18.280Z,33.80
2019-03-23T04:36:00.320Z,30.77
2019-03-23T04:38:42.236Z,31.27
2019-03-23T04:41:25.365Z,28.17
2019-03-23T04:44:07.329Z,29.10
2019-03-23T04:46:49.162Z,28.37
2019-03-23T04:49:31.056Z,30.60
2019-03-23T04:52:13.131Z,33.97
2019-03-23T04:54:54.867Z,30.43
2019-03-23T04:57:38.656Z,27.70
2019-03-23T05:00:20.652Z,37.30
2019-03-23T05:03:02.587Z,33.37
2019-03-23T05:05:44.896Z,29.60
2019-03-23T05:08:33.418Z,32.93
2019-03-23T05:11:10.157Z,26.90
2019-03-23T05:13:51.991Z,31.10
2019-03-23T05:16:34.082Z,33.83
2019-03-23T05:19:16.171Z,41.87
2019-03-23T05:21:58.266Z,33.63
2019-03-23T05:24:40.403Z,31.30
2019-03-23T05:27:22.359Z,29.77
2019-03-23T05:30:04.245Z,28.40
2019-03-23T05:32:46.278Z,28.23
2019-03-23T05:35:27.535Z,29.47
2019-03-23T05:38:09.697Z,32.73
2019-03-23T05:40:51.698Z,38.30
2019-03-23T05:43:33.435Z,32.63
2019-03-23T05:46:15.436Z,29.00
2019-03-23T05:48:57.425Z,29.87
2019-03-23T05:51:39.220Z,33.20
2019-03-23T05:54:21.209Z,31.17
2019-03-23T05:57:03.192Z,28.37
2019-03-23T05:59:44.304Z,27.20
2019-03-23T06:02:26.616Z,27.30
2019-03-23T06:05:08.489Z,28.20
2019-03-23T06:07:50.469Z,29.97
2019-03-23T06:10:32.491Z,31.13
2019-03-23T06:13:13.621Z,29.07
2019-03-23T06:15:55.575Z,31.27
2019-03-23T06:18:37.484Z,32.17
2019-03-23T06:21:19.507Z,26.43
2019-03-23T06:24:01.720Z,28.43
2019-03-23T06:26:43.760Z,28.53
2019-03-23T06:29:26.003Z,28.20
2019-03-23T06:32:07.833Z,29.30
2019-03-23T06:34:49.701Z,30.90
2019-03-23T06:37:31.846Z,28.70
2019-03-23T06:40:13.924Z,36.70
2019-03-23T06:42:59.683Z,27.73
2019-03-23T06:45:39.215Z,32.27
2019-03-23T06:48:20.932Z,28.63
2019-03-23T06:51:03.373Z,23.10
2019-03-23T06:53:44.697Z,25.77
2019-03-23T06:56:26.557Z,22.87
2019-03-23T06:59:08.572Z,23.50
2019-03-23T07:01:50.647Z,29.20
2019-03-23T07:04:32.431Z,24.27
2019-03-23T07:07:14.484Z,25.63
2019-03-23T07:09:56.524Z,25.30
2019-03-23T07:12:38.565Z,21.00
2019-03-23T07:15:20.682Z,22.60
2019-03-23T07:18:04.303Z,25.73
2019-03-23T07:20:46.071Z,25.70
2019-03-23T07:23:28.116Z,19.30
2019-03-23T07:26:09.759Z,24.20
2019-03-23T07:28:51.576Z,22.13
2019-03-23T07:31:33.539Z,21.37
2019-03-23T07:34:15.645Z,24.70
2019-03-23T07:36:57.648Z,19.63
2019-03-23T07:39:39.597Z,22.73
2019-03-23T07:42:21.684Z,19.17
2019-03-23T07:45:03.586Z,19.57
2019-03-23T07:47:46.688Z,21.17
2019-03-23T07:50:28.701Z,23.40
2019-03-23T07:53:10.516Z,21.70
2019-03-23T07:55:52.591Z,17.33
2019-03-23T07:58:33.548Z,18.90
2019-03-23T08:01:15.629Z,19.33
2019-03-23T08:03:57.674Z,19.37
2019-03-23T08:06:39.517Z,21.23
2019-03-23T08:09:23.481Z,22.30
2019-03-23T08:12:04.647Z,19.33
2019-03-23T08:14:46.696Z,22.03
2019-03-23T08:17:28.551Z,24.33
2019-03-23T08:20:10.651Z,17.20
2019-03-23T08:22:52.555Z,21.37
2019-03-23T08:25:34.528Z,18.77
2019-03-23T08:28:16.424Z,22.07
2019-03-23T08:30:58.374Z,20.77
2019-03-23T08:33:40.428Z,18.00
2019-03-23T08:36:22.436Z,24.03
2019-03-23T08:39:04.944Z,28.90
2019-03-23T08:42:06.540Z,18.77
2019-03-23T08:44:48.597Z,16.87
2019-03-23T08:47:30.545Z,17.77
2019-03-23T08:50:12.470Z,17.13
2019-03-23T08:52:54.380Z,19.30
2019-03-23T08:55:36.128Z,19.57
2019-03-23T08:58:18.243Z,17.13
2019-03-23T09:01:00.435Z,19.27
2019-03-23T09:03:52.033Z,16.97
2019-03-23T09:06:26.403Z,17.03
2019-03-23T09:09:09.401Z,20.20
2019-03-23T09:11:51.431Z,17.73
2019-03-23T09:14:34.519Z,20.10
2019-03-23T09:17:16.320Z,19.07
2019-03-23T09:19:58.582Z,18.53
2019-03-23T09:22:40.519Z,22.10
2019-03-23T09:25:22.217Z,20.53
2019-03-23T09:28:04.147Z,23.13
2019-03-23T09:30:45.913Z,23.63
2019-03-23T09:33:27.692Z,20.40
2019-03-23T09:36:09.684Z,26.13
2019-03-23T09:38:51.809Z,20.10
2019-03-23T09:41:33.792Z,22.03
2019-03-23T09:44:15.732Z,19.63
2019-03-23T09:46:57.743Z,19.83
2019-03-23T09:49:39.613Z,20.50
2019-03-23T09:52:21.588Z,26.30
2019-03-23T09:55:03.440Z,22.50
2019-03-23T09:57:45.495Z,29.00
2019-03-23T10:00:27.407Z,22.83
2019-03-23T10:03:09.347Z,35.23
2019-03-23T10:05:51.228Z,32.60
2019-03-23T10:08:33.141Z,42.90
2019-03-23T10:11:15.104Z,23.10
2019-03-23T10:13:56.964Z,79.60
2019-03-23T10:16:38.861Z,38.27
2019-03-23T10:19:23.184Z,24.23
2019-03-23T10:22:04.737Z,45.87
2019-03-23T10:24:46.787Z,22.80
2019-03-23T10:27:28.793Z,35.70
2019-03-23T10:30:10.696Z,21.50
2019-03-23T10:32:52.751Z,28.30
2019-03-23T10:35:53.787Z,22.67
2019-03-23T10:38:34.979Z,42.03
2019-03-23T10:41:17.063Z,21.10
2019-03-23T10:43:58.809Z,29.50
2019-03-23T10:46:40.804Z,24.43
2019-03-23T10:49:24.638Z,33.73
2019-03-23T10:52:05.699Z,24.93
2019-03-23T10:54:47.589Z,24.13
2019-03-23T10:57:29.716Z,20.13
2019-03-23T11:00:11.815Z,23.73
2019-03-23T11:02:54.143Z,28.33
2019-03-23T11:05:36.092Z,21.20
2019-03-23T11:08:17.267Z,53.07
2019-03-23T11:10:59.244Z,25.63
2019-03-23T11:13:40.988Z,29.50
2019-03-23T11:16:24.072Z,22.73
2019-03-23T11:19:13.270Z,28.63
2019-03-23T11:21:35.887Z,32.43
2019-03-23T11:24:17.692Z,22.93
2019-03-23T11:27:19.774Z,22.20
2019-03-23T11:30:01.838Z,21.80
2019-03-23T11:32:42.824Z,18.27
2019-03-23T11:35:24.777Z,23.30
2019-03-23T11:40:53.839Z,22.83
2019-03-23T11:43:31.632Z,36.80
2019-03-23T11:46:16.932Z,26.73
2019-03-23T11:49:17.693Z,18.80
2019-03-23T11:51:59.700Z,21.63
2019-03-23T11:54:41.428Z,22.00
2019-03-23T11:57:23.424Z,24.20
2019-03-23T12:00:05.469Z,23.83
2019-03-23T12:02:47.413Z,21.03
2019-03-23T12:05:29.461Z,19.70
2019-03-23T12:08:11.342Z,21.00
2019-03-23T12:11:02.485Z,22.17
2019-03-23T12:13:37.489Z,21.50
2019-03-23T12:16:19.416Z,25.20
2019-03-23T12:19:00.964Z,26.37
2019-03-23T12:21:42.848Z,22.57
2019-03-23T12:24:24.516Z,23.83
2019-03-23T12:27:06.532Z,22.80
2019-03-23T12:29:48.399Z,25.57
2019-03-23T12:32:30.465Z,19.70
2019-03-23T12:35:12.128Z,28.80
2019-03-23T12:37:54.022Z,22.60
2019-03-23T12:40:36.561Z,19.90
2019-03-23T12:43:17.891Z,22.17
2019-03-23T12:45:59.748Z,20.03
2019-03-23T12:48:41.681Z,19.63
2019-03-23T12:51:24.536Z,23.67
2019-03-23T12:54:06.409Z,19.50
2019-03-23T12:56:49.171Z,22.07
2019-03-23T12:59:31.340Z,26.23
2019-03-23T13:02:13.448Z,25.23
2019-03-23T13:05:14.492Z,21.03
2019-03-23T13:07:56.443Z,21.60
2019-03-23T13:10:38.587Z,17.40
2019-03-23T13:13:20.171Z,21.77
2019-03-23T13:16:02.104Z,20.27
2019-03-23T13:18:44.101Z,19.97
2019-03-23T13:21:26.112Z,21.00
2019-03-23T13:24:07.967Z,22.10
2019-03-23T13:26:50.051Z,25.13
2019-03-23T13:29:32.011Z,18.83
2019-03-23T13:32:13.969Z,19.90
2019-03-23T13:34:55.887Z,21.90
2019-03-23T13:37:37.877Z,22.03
2019-03-23T13:40:19.624Z,25.67
2019-03-23T13:43:03.554Z,23.80
2019-03-23T13:45:45.645Z,19.93
2019-03-23T13:48:27.540Z,22.47
2019-03-23T13:51:09.627Z,27.37
2019-03-23T13:53:51.745Z,19.73
2019-03-23T13:56:33.608Z,22.17
2019-03-23T13:59:16.581Z,20.00
2019-03-23T14:01:58.375Z,23.53
2019-03-23T14:04:42.345Z,19.47
2019-03-23T14:07:24.439Z,19.70
2019-03-23T14:10:06.327Z,20.23
2019-03-23T14:12:50.179Z,18.53
2019-03-23T14:15:32.216Z,19.03
2019-03-23T14:18:13.242Z,24.00
2019-03-23T14:20:57.187Z,21.80
2019-03-23T14:23:39.223Z,17.73
2019-03-23T14:26:21.214Z,22.43
2019-03-23T14:29:03.288Z,19.27
2019-03-23T14:31:45.232Z,23.40
2019-03-23T14:34:27.273Z,22.07
2019-03-23T14:37:09.511Z,19.60
2019-03-23T14:39:51.428Z,19.50
2019-03-23T14:42:33.223Z,22.43
2019-03-23T14:45:15.306Z,18.40
2019-03-23T14:47:57.111Z,18.93
2019-03-23T14:50:25.198Z,21.33
2019-03-23T14:53:07.060Z,24.43
2019-03-23T14:55:49.132Z,24.47
2019-03-23T14:58:31.164Z,18.60
2019-03-23T15:01:13.264Z,25.33
2019-03-23T15:03:55.151Z,25.20
2019-03-23T15:06:37.426Z,21.00
2019-03-23T15:09:19.468Z,22.63
2019-03-23T15:12:01.300Z,20.53
2019-03-23T15:14:45.028Z,24.00
2019-03-23T15:17:27.037Z,19.93
2019-03-23T15:20:09.060Z,22.17
2019-03-23T15:22:51.084Z,19.80
2019-03-23T15:25:33.065Z,21.33
2019-03-23T15:28:14.896Z,25.27
2019-03-23T15:30:56.855Z,22.60
2019-03-23T15:33:38.887Z,24.87
2019-03-23T15:36:20.951Z,28.00
2019-03-23T15:39:04.163Z,29.03
2019-03-23T15:41:45.775Z,33.37
2019-03-23T15:44:27.661Z,32.00
2019-03-23T15:47:09.777Z,32.73
2019-03-23T15:49:51.850Z,29.67
2019-03-23T15:52:33.907Z,35.67
2019-03-23T15:55:15.844Z,27.63
2019-03-23T15:57:59.665Z,31.53
2019-03-23T16:00:41.668Z,35.23
2019-03-23T16:03:23.826Z,38.93
2019-03-23T16:06:06.732Z,34.20
2019-03-23T16:08:48.826Z,30.70
2019-03-23T16:11:30.888Z,34.80
2019-03-23T16:14:12.760Z,33.63
2019-03-23T16:16:54.769Z,29.90
2019-03-23T16:19:36.657Z,29.67
2019-03-23T16:22:18.944Z,30.03
2019-03-23T16:24:47.082Z,36.07
2019-03-23T16:27:49.448Z,31.50
2019-03-23T16:30:31.329Z,36.33
2019-03-23T16:33:13.501Z,30.83
2019-03-23T16:35:56.272Z,32.63
2019-03-23T16:38:38.071Z,31.93
2019-03-23T16:41:20.237Z,33.50
2019-03-23T16:44:02.131Z,35.97
2019-03-23T16:46:44.020Z,40.63
2019-03-23T16:49:25.771Z,38.67
2019-03-23T16:51:53.963Z,42.00
2019-03-23T16:54:36.577Z,42.17
2019-03-23T16:57:18.896Z,48.20
2019-03-23T17:00:00.428Z,51.57
2019-03-23T17:02:42.516Z,53.83
2019-03-23T17:05:24.196Z,55.13
2019-03-23T17:08:04.924Z,60.07
2019-03-23T17:10:47.014Z,62.07
2019-03-23T17:13:29.013Z,62.73
2019-03-23T17:16:10.999Z,61.33
2019-03-23T17:18:52.932Z,60.23
2019-03-23T17:21:34.747Z,62.20
2019-03-23T17:24:16.772Z,106.30
2019-03-23T17:26:58.828Z,70.37
2019-03-23T17:29:41.075Z,64.47
2019-03-23T17:32:22.937Z,67.07
2019-03-23T17:35:04.898Z,69.33
2019-03-23T17:37:46.957Z,72.20
2019-03-23T17:40:29.071Z,71.43
2019-03-23T17:43:11.048Z,81.93
2019-03-23T17:45:53.171Z,86.70
2019-03-23T17:48:34.904Z,97.00
2019-03-23T17:51:16.943Z,110.77
2019-03-23T17:54:00.898Z,107.73
2019-03-23T17:56:42.796Z,110.00
2019-03-23T17:59:24.579Z,123.93
2019-03-23T18:02:06.615Z,115.77
2019-03-23T18:04:48.307Z,112.20
2019-03-23T18:07:30.154Z,113.53
2019-03-23T18:10:11.898Z,123.57
2019-03-23T18:15:35.097Z,114.43
2019-03-23T18:18:17.074Z,116.43
2019-03-23T18:20:59.039Z,115.23
2019-03-23T18:23:40.092Z,131.93
2019-03-23T18:26:22.143Z,108.27
2019-03-23T18:29:03.957Z,112.77
2019-03-23T18:31:45.760Z,114.23
2019-03-23T18:34:56.796Z,120.13
2019-03-23T18:37:39.596Z,119.10
2019-03-23T18:40:21.339Z,115.37
2019-03-23T18:43:03.258Z,129.20
2019-03-23T18:45:45.252Z,119.43
2019-03-23T18:48:27.364Z,127.90
2019-03-23T18:51:09.224Z,109.83
2019-03-23T18:53:51.191Z,130.37
2019-03-23T18:56:33.427Z,116.07
2019-03-23T18:59:15.516Z,112.80
2019-03-23T19:01:57.395Z,120.60
2019-03-23T19:04:25.405Z,121.63
2019-03-23T19:07:08.388Z,117.13
2019-03-23T19:09:50.639Z,110.73
2019-03-23T19:12:32.053Z,117.20
2019-03-23T19:15:14.130Z,111.67
2019-03-23T19:17:56.011Z,120.43
2019-03-23T19:20:37.871Z,119.57
2019-03-23T19:23:19.999Z,112.97
2019-03-23T19:26:02.039Z,127.53
2019-03-23T19:28:43.987Z,121.73
2019-03-23T19:31:25.748Z,121.43
2019-03-23T19:34:07.500Z,116.93
2019-03-23T19:36:48.472Z,132.00
2019-03-23T19:39:30.641Z,111.37
2019-03-23T19:42:12.765Z,106.97
2019-03-23T19:44:54.564Z,99.53
2019-03-23T19:47:36.746Z,92.80
2019-03-23T19:50:18.864Z,72.40
2019-03-23T19:53:00.731Z,70.23
2019-03-23T19:55:42.951Z,65.77
2019-03-23T19:58:24.920Z,67.77
2019-03-23T20:01:06.979Z,74.63
2019-03-23T20:03:49.046Z,65.23
2019-03-23T20:06:31.043Z,69.87
2019-03-23T20:08:59.139Z,69.13
2019-03-23T20:11:40.902Z,60.60
2019-03-23T20:14:22.199Z,61.73
2019-03-23T20:17:04.151Z,63.00
2019-03-23T20:19:46.424Z,64.47
2019-03-23T20:22:28.615Z,69.60
2019-03-23T20:25:10.424Z,62.77
2019-03-23T20:27:52.347Z,71.57
2019-03-23T20:30:34.195Z,68.43
2019-03-23T20:33:19.615Z,76.83
2019-03-23T20:35:59.008Z,64.10
2019-03-23T20:38:40.935Z,68.63
2019-03-23T20:41:23.011Z,75.37
2019-03-23T20:44:09.737Z,68.70
2019-03-23T20:46:48.851Z,64.70
2019-03-23T20:49:30.784Z,63.47
2019-03-23T20:52:12.731Z,70.50
2019-03-23T20:54:54.695Z,60.37
2019-03-23T20:57:37.623Z,74.10
2019-03-23T21:00:19.388Z,68.77
2019-03-23T21:03:03.445Z,66.63
2019-03-23T21:05:45.228Z,75.53
2019-03-23T21:08:27.200Z,69.50
2019-03-23T21:11:09.477Z,65.43
2019-03-23T21:13:51.850Z,67.10
2019-03-23T21:16:34.789Z,68.40
2019-03-23T21:19:16.679Z,64.97
2019-03-23T21:21:57.677Z,64.97
2019-03-23T21:24:38.933Z,60.37
2019-03-23T21:27:20.776Z,63.23
2019-03-23T21:30:03.275Z,61.80
2019-03-23T21:32:46.007Z,61.60
2019-03-23T21:35:27.902Z,68.30
2019-03-23T21:38:10.727Z,66.70
2019-03-23T21:40:53.120Z,70.33
2019-03-23T21:43:35.607Z,59.60
2019-03-23T21:46:17.661Z,62.80
2019-03-23T21:48:59.707Z,65.80
2019-03-23T21:51:41.721Z,66.20
2019-03-23T21:54:25.704Z,119.93
2019-03-23T21:57:07.712Z,76.77
2019-03-23T21:59:49.646Z,62.33
2019-03-23T22:02:31.483Z,62.73
2019-03-23T22:05:13.559Z,64.97
2019-03-23T22:07:56.285Z,63.37
2019-03-23T22:10:38.247Z,63.37
2019-03-23T22:13:20.167Z,63.83
2019-03-23T22:16:02.116Z,60.13
2019-03-23T22:18:44.987Z,54.90
2019-03-23T22:21:28.869Z,62.37
2019-03-23T22:24:10.963Z,56.40
2019-03-23T22:26:53.128Z,58.50
2019-03-23T22:29:35.052Z,59.33
2019-03-23T22:32:17.173Z,59.37
2019-03-23T22:34:59.213Z,54.57
2019-03-23T22:37:40.977Z,56.87
2019-03-23T22:40:23.024Z,55.47
2019-03-23T22:43:05.145Z,70.33
2019-03-23T22:45:47.540Z,57.93
2019-03-23T22:48:29.042Z,60.77
2019-03-23T22:51:11.095Z,60.80
2019-03-23T22:53:55.188Z,61.27
2019-03-23T22:56:37.303Z,60.80
2019-03-23T22:59:19.799Z,63.20
2019-03-23T23:02:01.735Z,61.80
2019-03-23T23:04:43.803Z,58.07
2019-03-23T23:07:26.400Z,62.93
2019-03-23T23:10:08.700Z,66.03
2019-03-23T23:12:37.127Z,73.30
2019-03-23T23:15:18.700Z,67.70
2019-03-23T23:18:01.860Z,63.93
2019-03-23T23:20:43.765Z,66.70
2019-03-23T23:23:25.727Z,62.13
2019-03-23T23:26:07.863Z,65.40
2019-03-23T23:28:49.711Z,68.60
2019-03-23T23:31:31.767Z,63.57
2019-03-23T23:34:12.874Z,64.27
2019-03-23T23:36:54.890Z,70.20
2019-03-23T23:39:36.771Z,66.97
2019-03-23T23:42:19.016Z,66.03
2019-03-23T23:45:00.317Z,68.80
2019-03-23T23:47:41.987Z,72.80
2019-03-23T23:50:23.875Z,65.80
2019-03-23T23:52:51.998Z,74.67
2019-03-23T23:55:33.419Z,75.53
2019-03-23T23:58:15.347Z,73.87
